sensor_id;sensor_type;location;lat;lon;timestamp;pressure;altitude;pressure_sealevel;temperature;humidity
52935;BME280;38802;50.198;19.796;2023-05-22T00:01:37;96458.22;;;12.65;60.09
52935;BME280;38802;50.198;19.796;2023-05-22T00:04:04;96460.66;;;12.61;59.92
52935;BME280;38802;50.198;19.796;2023-05-22T00:06:31;96457.63;;;12.60;60.28
52935;BME280;38802;50.198;19.796;2023-05-22T00:08:59;96459.61;;;12.59;60.11
52935;BME280;38802;50.198;19.796;2023-05-22T00:11:26;96455.57;;;12.57;59.96
52935;BME280;38802;50.198;19.796;2023-05-22T00:13:52;96455.22;;;12.55;60.11
52935;BME280;38802;50.198;19.796;2023-05-22T00:16:19;96453.50;;;12.53;60.16
52935;BME280;38802;50.198;19.796;2023-05-22T00:18:46;96454.46;;;12.50;60.25
52935;BME280;38802;50.198;19.796;2023-05-22T00:21:13;96451.63;;;12.48;60.22
52935;BME280;38802;50.198;19.796;2023-05-22T00:23:42;96449.39;;;12.46;60.28
52935;BME280;38802;50.198;19.796;2023-05-22T00:26:09;96448.07;;;12.45;60.35
52935;BME280;38802;50.198;19.796;2023-05-22T00:28:35;96446.96;;;12.44;60.34
52935;BME280;38802;50.198;19.796;2023-05-22T00:31:02;96444.73;;;12.42;60.33
52935;BME280;38802;50.198;19.796;2023-05-22T00:33:29;96444.60;;;12.39;60.33
52935;BME280;38802;50.198;19.796;2023-05-22T00:35:56;96442.35;;;12.37;60.47
52935;BME280;38802;50.198;19.796;2023-05-22T00:38:30;96441.91;;;12.38;60.40
52935;BME280;38802;50.198;19.796;2023-05-22T00:40:59;96440.50;;;12.36;60.38
52935;BME280;38802;50.198;19.796;2023-05-22T00:43:26;96437.00;;;12.34;60.45
52935;BME280;38802;50.198;19.796;2023-05-22T00:45:54;96437.55;;;12.34;60.30
52935;BME280;38802;50.198;19.796;2023-05-22T00:48:22;96438.91;;;12.32;60.35
52935;BME280;38802;50.198;19.796;2023-05-22T00:50:50;96436.80;;;12.31;60.45
52935;BME280;38802;50.198;19.796;2023-05-22T00:53:19;96434.10;;;12.30;60.42
52935;BME280;38802;50.198;19.796;2023-05-22T00:55:46;96430.89;;;12.26;60.58
52935;BME280;38802;50.198;19.796;2023-05-22T00:58:16;96427.73;;;12.22;60.60
52935;BME280;38802;50.198;19.796;2023-05-22T01:00:44;96428.09;;;12.20;60.58
52935;BME280;38802;50.198;19.796;2023-05-22T01:03:12;96428.41;;;12.19;60.49
52935;BME280;38802;50.198;19.796;2023-05-22T01:05:41;96428.66;;;12.18;60.65
52935;BME280;38802;50.198;19.796;2023-05-22T01:08:08;96424.78;;;12.16;60.65
52935;BME280;38802;50.198;19.796;2023-05-22T01:10:37;96422.10;;;12.15;60.60
52935;BME280;38802;50.198;19.796;2023-05-22T01:13:21;96420.00;;;12.11;60.74
52935;BME280;38802;50.198;19.796;2023-05-22T01:16:20;96422.13;;;12.08;60.86
52935;BME280;38802;50.198;19.796;2023-05-22T01:22:14;96417.08;;;12.03;60.83
52935;BME280;38802;50.198;19.796;2023-05-22T01:27:33;96411.45;;;11.93;61.13
52935;BME280;38802;50.198;19.796;2023-05-22T01:30:18;96413.59;;;11.90;61.26
52935;BME280;38802;50.198;19.796;2023-05-22T01:32:47;96413.48;;;11.90;61.23
52935;BME280;38802;50.198;19.796;2023-05-22T01:35:16;96414.89;;;11.87;61.23
52935;BME280;38802;50.198;19.796;2023-05-22T01:37:44;96413.71;;;11.87;61.37
52935;BME280;38802;50.198;19.796;2023-05-22T01:40:12;96408.73;;;11.86;61.41
52935;BME280;38802;50.198;19.796;2023-05-22T01:42:39;96414.27;;;11.84;61.42
52935;BME280;38802;50.198;19.796;2023-05-22T01:45:09;96410.04;;;11.85;61.50
52935;BME280;38802;50.198;19.796;2023-05-22T01:47:37;96413.55;;;11.84;61.68
52935;BME280;38802;50.198;19.796;2023-05-22T01:50:04;96409.89;;;11.83;61.53
52935;BME280;38802;50.198;19.796;2023-05-22T01:52:43;96410.14;;;11.79;61.58
52935;BME280;38802;50.198;19.796;2023-05-22T01:55:20;96411.65;;;11.76;61.76
52935;BME280;38802;50.198;19.796;2023-05-22T01:58:03;96413.73;;;11.74;61.87
52935;BME280;38802;50.198;19.796;2023-05-22T02:00:36;96410.81;;;11.69;61.83
52935;BME280;38802;50.198;19.796;2023-05-22T02:03:15;96405.16;;;11.63;62.04
52935;BME280;38802;50.198;19.796;2023-05-22T02:05:48;96405.63;;;11.58;61.91
52935;BME280;38802;50.198;19.796;2023-05-22T02:08:19;96405.89;;;11.57;62.06
52935;BME280;38802;50.198;19.796;2023-05-22T02:10:47;96403.88;;;11.54;62.20
52935;BME280;38802;50.198;19.796;2023-05-22T02:13:15;96406.96;;;11.51;62.26
52935;BME280;38802;50.198;19.796;2023-05-22T02:15:44;96409.70;;;11.49;62.47
52935;BME280;38802;50.198;19.796;2023-05-22T02:18:11;96413.19;;;11.45;62.42
52935;BME280;38802;50.198;19.796;2023-05-22T02:20:39;96413.88;;;11.41;62.36
52935;BME280;38802;50.198;19.796;2023-05-22T02:23:07;96411.90;;;11.37;62.87
52935;BME280;38802;50.198;19.796;2023-05-22T02:25:33;96412.52;;;11.34;62.63
52935;BME280;38802;50.198;19.796;2023-05-22T02:28:00;96414.97;;;11.32;62.74
52935;BME280;38802;50.198;19.796;2023-05-22T02:30:27;96408.91;;;11.29;62.93
52935;BME280;38802;50.198;19.796;2023-05-22T02:32:54;96408.83;;;11.26;63.16
52935;BME280;38802;50.198;19.796;2023-05-22T02:35:22;96406.82;;;11.23;63.16
52935;BME280;38802;50.198;19.796;2023-05-22T02:37:50;96403.55;;;11.20;62.92
52935;BME280;38802;50.198;19.796;2023-05-22T02:40:17;96405.73;;;11.17;63.36
52935;BME280;38802;50.198;19.796;2023-05-22T02:42:44;96399.53;;;11.16;63.21
52935;BME280;38802;50.198;19.796;2023-05-22T02:45:11;96402.41;;;11.15;63.41
52935;BME280;38802;50.198;19.796;2023-05-22T02:47:37;96401.66;;;11.12;63.11
52935;BME280;38802;50.198;19.796;2023-05-22T02:50:05;96401.23;;;11.10;63.27
52935;BME280;38802;50.198;19.796;2023-05-22T02:52:33;96402.58;;;11.09;63.35
52935;BME280;38802;50.198;19.796;2023-05-22T02:55:00;96401.80;;;11.08;63.30
52935;BME280;38802;50.198;19.796;2023-05-22T02:57:27;96398.91;;;11.07;63.53
52935;BME280;38802;50.198;19.796;2023-05-22T02:59:53;96397.84;;;11.07;63.18
52935;BME280;38802;50.198;19.796;2023-05-22T03:02:20;96393.20;;;11.07;63.63
52935;BME280;38802;50.198;19.796;2023-05-22T03:04:47;96393.40;;;11.09;63.63
52935;BME280;38802;50.198;19.796;2023-05-22T03:07:13;96390.84;;;11.08;63.45
52935;BME280;38802;50.198;19.796;2023-05-22T03:09:40;96389.44;;;11.06;63.62
52935;BME280;38802;50.198;19.796;2023-05-22T03:12:07;96392.22;;;11.04;63.64
52935;BME280;38802;50.198;19.796;2023-05-22T03:14:34;96396.45;;;11.03;63.62
52935;BME280;38802;50.198;19.796;2023-05-22T03:17:01;96396.05;;;10.99;63.82
52935;BME280;38802;50.198;19.796;2023-05-22T03:19:28;96397.37;;;10.98;63.78
52935;BME280;38802;50.198;19.796;2023-05-22T03:21:55;96392.52;;;10.96;63.76
52935;BME280;38802;50.198;19.796;2023-05-22T03:24:23;96392.75;;;10.95;63.64
52935;BME280;38802;50.198;19.796;2023-05-22T03:26:50;96392.11;;;10.97;63.86
52935;BME280;38802;50.198;19.796;2023-05-22T03:29:22;96390.48;;;10.97;63.84
52935;BME280;38802;50.198;19.796;2023-05-22T03:31:49;96389.73;;;11.00;63.75
52935;BME280;38802;50.198;19.796;2023-05-22T03:34:15;96389.27;;;11.02;63.81
52935;BME280;38802;50.198;19.796;2023-05-22T03:36:43;96391.06;;;11.00;63.57
52935;BME280;38802;50.198;19.796;2023-05-22T03:39:11;96392.16;;;11.00;63.85
52935;BME280;38802;50.198;19.796;2023-05-22T03:41:43;96389.89;;;11.00;63.81
52935;BME280;38802;50.198;19.796;2023-05-22T03:44:10;96392.95;;;11.01;63.87
52935;BME280;38802;50.198;19.796;2023-05-22T03:46:37;96392.82;;;11.03;63.70
52935;BME280;38802;50.198;19.796;2023-05-22T03:49:04;96393.30;;;11.06;63.78
52935;BME280;38802;50.198;19.796;2023-05-22T03:51:31;96387.36;;;11.08;63.95
52935;BME280;38802;50.198;19.796;2023-05-22T03:53:59;96391.33;;;11.11;63.51
52935;BME280;38802;50.198;19.796;2023-05-22T03:56:26;96389.64;;;11.12;63.94
52935;BME280;38802;50.198;19.796;2023-05-22T03:58:52;96388.56;;;11.14;63.66
52935;BME280;38802;50.198;19.796;2023-05-22T04:01:20;96390.94;;;11.17;63.88
52935;BME280;38802;50.198;19.796;2023-05-22T04:03:47;96390.77;;;11.19;63.78
52935;BME280;38802;50.198;19.796;2023-05-22T04:06:14;96393.07;;;11.23;63.92
52935;BME280;38802;50.198;19.796;2023-05-22T04:08:40;96390.59;;;11.26;63.79
52935;BME280;38802;50.198;19.796;2023-05-22T04:11:07;96391.38;;;11.27;63.77
52935;BME280;38802;50.198;19.796;2023-05-22T04:13:34;96392.59;;;11.31;63.91
52935;BME280;38802;50.198;19.796;2023-05-22T04:16:00;96389.11;;;11.33;63.65
52935;BME280;38802;50.198;19.796;2023-05-22T04:18:29;96387.87;;;11.38;63.94
52935;BME280;38802;50.198;19.796;2023-05-22T04:20:55;96386.86;;;11.42;63.87
52935;BME280;38802;50.198;19.796;2023-05-22T04:23:22;96387.36;;;11.48;64.00
52935;BME280;38802;50.198;19.796;2023-05-22T04:25:50;96389.61;;;11.52;63.89
52935;BME280;38802;50.198;19.796;2023-05-22T04:28:19;96387.46;;;11.57;63.83
52935;BME280;38802;50.198;19.796;2023-05-22T04:30:48;96387.08;;;11.61;63.97
52935;BME280;38802;50.198;19.796;2023-05-22T04:33:17;96382.09;;;11.69;63.90
52935;BME280;38802;50.198;19.796;2023-05-22T04:35:44;96375.55;;;11.77;63.91
52935;BME280;38802;50.198;19.796;2023-05-22T04:38:10;96375.93;;;11.85;63.98
52935;BME280;38802;50.198;19.796;2023-05-22T04:40:37;96377.09;;;11.93;63.84
52935;BME280;38802;50.198;19.796;2023-05-22T04:43:04;96377.81;;;12.04;63.84
52935;BME280;38802;50.198;19.796;2023-05-22T04:45:31;96375.13;;;12.12;63.75
52935;BME280;38802;50.198;19.796;2023-05-22T04:47:58;96371.58;;;12.21;63.64
52935;BME280;38802;50.198;19.796;2023-05-22T04:50:31;96369.30;;;12.32;63.63
52935;BME280;38802;50.198;19.796;2023-05-22T04:52:59;96368.27;;;12.43;63.80
52935;BME280;38802;50.198;19.796;2023-05-22T04:55:26;96367.45;;;12.58;63.71
52935;BME280;38802;50.198;19.796;2023-05-22T04:57:52;96374.84;;;12.73;63.67
52935;BME280;38802;50.198;19.796;2023-05-22T05:00:19;96377.77;;;12.91;63.49
52935;BME280;38802;50.198;19.796;2023-05-22T05:02:51;96373.59;;;13.11;63.59
52935;BME280;38802;50.198;19.796;2023-05-22T05:05:18;96374.17;;;13.30;62.83
52935;BME280;38802;50.198;19.796;2023-05-22T05:07:46;96369.83;;;13.49;62.82
52935;BME280;38802;50.198;19.796;2023-05-22T05:10:16;96371.06;;;13.65;61.96
52935;BME280;38802;50.198;19.796;2023-05-22T05:12:43;96368.70;;;13.81;62.33
52935;BME280;38802;50.198;19.796;2023-05-22T05:15:10;96367.02;;;14.01;62.08
52935;BME280;38802;50.198;19.796;2023-05-22T05:17:37;96371.44;;;14.19;61.43
52935;BME280;38802;50.198;19.796;2023-05-22T05:20:04;96367.84;;;14.37;61.70
52935;BME280;38802;50.198;19.796;2023-05-22T05:22:32;96369.42;;;14.55;61.54
52935;BME280;38802;50.198;19.796;2023-05-22T05:25:01;96370.44;;;14.74;61.29
52935;BME280;38802;50.198;19.796;2023-05-22T05:27:29;96371.73;;;14.96;61.14
52935;BME280;38802;50.198;19.796;2023-05-22T05:29:56;96369.05;;;15.13;60.24
52935;BME280;38802;50.198;19.796;2023-05-22T05:32:37;96375.20;;;15.32;59.69
52935;BME280;38802;50.198;19.796;2023-05-22T05:35:26;96368.60;;;15.49;59.53
52935;BME280;38802;50.198;19.796;2023-05-22T05:38:07;96366.97;;;15.68;58.90
52935;BME280;38802;50.198;19.796;2023-05-22T05:40:34;96369.52;;;15.87;59.35
52935;BME280;38802;50.198;19.796;2023-05-22T05:43:02;96366.91;;;16.06;58.79
52935;BME280;38802;50.198;19.796;2023-05-22T05:45:29;96364.98;;;16.21;58.28
52935;BME280;38802;50.198;19.796;2023-05-22T05:47:56;96365.50;;;16.37;57.97
52935;BME280;38802;50.198;19.796;2023-05-22T05:50:26;96363.54;;;16.54;57.08
52935;BME280;38802;50.198;19.796;2023-05-22T05:52:53;96365.98;;;16.64;56.33
52935;BME280;38802;50.198;19.796;2023-05-22T05:55:20;96366.05;;;16.71;56.23
52935;BME280;38802;50.198;19.796;2023-05-22T05:57:48;96362.09;;;16.81;56.32
52935;BME280;38802;50.198;19.796;2023-05-22T06:00:21;96361.05;;;16.96;55.62
52935;BME280;38802;50.198;19.796;2023-05-22T06:02:48;96365.17;;;17.05;55.69
52935;BME280;38802;50.198;19.796;2023-05-22T06:05:43;96360.87;;;17.22;55.60
52935;BME280;38802;50.198;19.796;2023-05-22T06:08:25;96361.86;;;17.35;54.46
52935;BME280;38802;50.198;19.796;2023-05-22T06:10:52;96360.04;;;17.40;53.89
52935;BME280;38802;50.198;19.796;2023-05-22T06:13:37;96356.53;;;17.53;54.82
52935;BME280;38802;50.198;19.796;2023-05-22T06:16:05;96356.83;;;17.73;53.63
52935;BME280;38802;50.198;19.796;2023-05-22T06:18:33;96353.08;;;17.87;53.94
52935;BME280;38802;50.198;19.796;2023-05-22T06:21:00;96353.54;;;18.06;54.42
52935;BME280;38802;50.198;19.796;2023-05-22T06:32:22;96354.59;;;18.87;52.96
52935;BME280;38802;50.198;19.796;2023-05-22T06:34:51;96348.41;;;18.91;52.74
52935;BME280;38802;50.198;19.796;2023-05-22T06:37:20;96350.57;;;19.05;52.36
52935;BME280;38802;50.198;19.796;2023-05-22T06:39:48;96347.46;;;19.16;52.61
52935;BME280;38802;50.198;19.796;2023-05-22T06:42:31;96345.34;;;19.40;51.91
52935;BME280;38802;50.198;19.796;2023-05-22T06:45:18;96344.95;;;19.48;50.96
52935;BME280;38802;50.198;19.796;2023-05-22T06:48:00;96344.14;;;19.53;50.25
52935;BME280;38802;50.198;19.796;2023-05-22T06:50:29;96343.73;;;19.58;50.85
52935;BME280;38802;50.198;19.796;2023-05-22T06:52:58;96340.82;;;19.75;50.82
52935;BME280;38802;50.198;19.796;2023-05-22T06:55:26;96340.00;;;19.84;49.95
52935;BME280;38802;50.198;19.796;2023-05-22T06:58:03;96337.17;;;19.85;49.56
52935;BME280;38802;50.198;19.796;2023-05-22T07:00:34;96339.58;;;19.90;48.78
52935;BME280;38802;50.198;19.796;2023-05-22T07:03:23;96342.59;;;19.88;48.63
52935;BME280;38802;50.198;19.796;2023-05-22T07:06:11;96341.84;;;19.92;48.51
52935;BME280;38802;50.198;19.796;2023-05-22T07:08:40;96343.98;;;20.03;49.25
52935;BME280;38802;50.198;19.796;2023-05-22T07:11:09;96347.21;;;20.13;48.05
52935;BME280;38802;50.198;19.796;2023-05-22T07:13:37;96341.79;;;20.07;48.35
52935;BME280;38802;50.198;19.796;2023-05-22T07:16:06;96342.02;;;20.09;48.47
52935;BME280;38802;50.198;19.796;2023-05-22T07:18:34;96339.47;;;20.10;47.46
52935;BME280;38802;50.198;19.796;2023-05-22T07:21:03;96337.30;;;20.00;47.17
52935;BME280;38802;50.198;19.796;2023-05-22T07:23:31;96339.13;;;20.02;47.44
52935;BME280;38802;50.198;19.796;2023-05-22T07:25:59;96342.81;;;20.04;46.83
52935;BME280;38802;50.198;19.796;2023-05-22T07:28:31;96343.83;;;20.11;46.62
52935;BME280;38802;50.198;19.796;2023-05-22T07:31:04;96345.23;;;20.18;46.41
52935;BME280;38802;50.198;19.796;2023-05-22T07:33:32;96343.10;;;20.17;46.20
52935;BME280;38802;50.198;19.796;2023-05-22T07:36:01;96343.30;;;20.16;47.00
52935;BME280;38802;50.198;19.796;2023-05-22T07:38:30;96344.89;;;20.27;47.32
52935;BME280;38802;50.198;19.796;2023-05-22T07:41:00;96341.90;;;20.34;46.84
52935;BME280;38802;50.198;19.796;2023-05-22T07:43:32;96341.09;;;20.34;46.57
52935;BME280;38802;50.198;19.796;2023-05-22T07:46:01;96343.21;;;20.31;46.65
52935;BME280;38802;50.198;19.796;2023-05-22T07:48:34;96348.36;;;20.36;46.99
52935;BME280;38802;50.198;19.796;2023-05-22T07:51:02;96345.44;;;20.37;46.09
52935;BME280;38802;50.198;19.796;2023-05-22T07:53:31;96347.63;;;20.36;46.65
52935;BME280;38802;50.198;19.796;2023-05-22T07:55:59;96345.85;;;20.36;47.19
52935;BME280;38802;50.198;19.796;2023-05-22T07:58:29;96348.91;;;20.57;47.17
52935;BME280;38802;50.198;19.796;2023-05-22T08:00:57;96352.11;;;20.66;46.40
52935;BME280;38802;50.198;19.796;2023-05-22T08:03:25;96355.41;;;20.58;45.92
52935;BME280;38802;50.198;19.796;2023-05-22T08:05:53;96355.48;;;20.53;46.08
52935;BME280;38802;50.198;19.796;2023-05-22T08:08:21;96355.81;;;20.58;46.27
52935;BME280;38802;50.198;19.796;2023-05-22T08:10:49;96354.77;;;20.68;46.85
52935;BME280;38802;50.198;19.796;2023-05-22T08:13:31;96356.02;;;20.78;46.11
52935;BME280;38802;50.198;19.796;2023-05-22T08:15:59;96354.52;;;20.80;45.27
52935;BME280;38802;50.198;19.796;2023-05-22T08:18:28;96351.61;;;20.79;45.89
52935;BME280;38802;50.198;19.796;2023-05-22T08:20:57;96356.30;;;20.84;45.12
52935;BME280;38802;50.198;19.796;2023-05-22T08:23:26;96354.48;;;20.80;44.63
52935;BME280;38802;50.198;19.796;2023-05-22T08:25:55;96355.96;;;20.75;45.38
52935;BME280;38802;50.198;19.796;2023-05-22T08:28:23;96349.75;;;20.63;43.80
52935;BME280;38802;50.198;19.796;2023-05-22T08:30:52;96349.36;;;20.50;45.05
52935;BME280;38802;50.198;19.796;2023-05-22T08:33:22;96352.66;;;20.53;45.70
52935;BME280;38802;50.198;19.796;2023-05-22T08:35:50;96350.18;;;20.60;45.48
52935;BME280;38802;50.198;19.796;2023-05-22T08:38:18;96357.54;;;20.67;45.74
52935;BME280;38802;50.198;19.796;2023-05-22T08:40:52;96348.42;;;20.67;45.00
52935;BME280;38802;50.198;19.796;2023-05-22T08:43:27;96355.45;;;20.69;45.53
52935;BME280;38802;50.198;19.796;2023-05-22T08:45:59;96352.80;;;20.62;44.94
52935;BME280;38802;50.198;19.796;2023-05-22T08:48:30;96352.46;;;20.68;45.38
52935;BME280;38802;50.198;19.796;2023-05-22T08:51:03;96354.14;;;20.72;45.34
52935;BME280;38802;50.198;19.796;2023-05-22T08:53:35;96350.98;;;20.71;45.31
52935;BME280;38802;50.198;19.796;2023-05-22T08:56:05;96348.69;;;20.65;44.91
52935;BME280;38802;50.198;19.796;2023-05-22T08:58:35;96346.00;;;20.66;45.26
52935;BME280;38802;50.198;19.796;2023-05-22T09:01:04;96343.54;;;20.67;45.35
52935;BME280;38802;50.198;19.796;2023-05-22T09:03:34;96339.78;;;20.70;45.02
52935;BME280;38802;50.198;19.796;2023-05-22T09:06:03;96336.90;;;20.68;44.33
52935;BME280;38802;50.198;19.796;2023-05-22T09:08:37;96336.98;;;20.60;44.71
52935;BME280;38802;50.198;19.796;2023-05-22T09:11:05;96338.39;;;20.59;44.63
52935;BME280;38802;50.198;19.796;2023-05-22T09:13:33;96338.02;;;20.56;45.02
52935;BME280;38802;50.198;19.796;2023-05-22T09:16:10;96340.67;;;20.46;43.63
52935;BME280;38802;50.198;19.796;2023-05-22T09:18:39;96337.17;;;20.30;44.20
52935;BME280;38802;50.198;19.796;2023-05-22T09:21:09;96343.80;;;20.14;43.65
52935;BME280;38802;50.198;19.796;2023-05-22T09:24:01;96340.86;;;19.94;43.73
52935;BME280;38802;50.198;19.796;2023-05-22T09:26:29;96340.28;;;19.88;43.74
52935;BME280;38802;50.198;19.796;2023-05-22T09:29:01;96340.77;;;19.91;43.68
52935;BME280;38802;50.198;19.796;2023-05-22T09:31:29;96338.77;;;19.98;44.59
52935;BME280;38802;50.198;19.796;2023-05-22T09:33:58;96339.45;;;20.15;45.22
52935;BME280;38802;50.198;19.796;2023-05-22T09:36:32;96339.81;;;20.30;45.31
52935;BME280;38802;50.198;19.796;2023-05-22T09:39:02;96333.63;;;20.33;44.61
52935;BME280;38802;50.198;19.796;2023-05-22T09:41:38;96329.91;;;20.35;45.42
52935;BME280;38802;50.198;19.796;2023-05-22T09:44:12;96325.60;;;20.45;45.03
52935;BME280;38802;50.198;19.796;2023-05-22T09:46:43;96327.72;;;20.40;44.73
52935;BME280;38802;50.198;19.796;2023-05-22T09:49:12;96329.06;;;20.40;44.59
52935;BME280;38802;50.198;19.796;2023-05-22T09:51:44;96326.33;;;20.23;43.89
52935;BME280;38802;50.198;19.796;2023-05-22T09:54:18;96327.34;;;20.13;43.99
52935;BME280;38802;50.198;19.796;2023-05-22T09:56:48;96326.52;;;20.22;43.74
52935;BME280;38802;50.198;19.796;2023-05-22T09:59:20;96322.56;;;20.24;43.87
52935;BME280;38802;50.198;19.796;2023-05-22T10:01:50;96318.61;;;20.31;43.72
52935;BME280;38802;50.198;19.796;2023-05-22T10:04:21;96320.23;;;20.43;43.89
52935;BME280;38802;50.198;19.796;2023-05-22T10:06:52;96320.63;;;20.51;43.33
52935;BME280;38802;50.198;19.796;2023-05-22T10:09:23;96325.33;;;20.53;43.31
52935;BME280;38802;50.198;19.796;2023-05-22T10:11:54;96317.76;;;20.38;43.00
52935;BME280;38802;50.198;19.796;2023-05-22T10:14:24;96314.36;;;20.29;43.65
52935;BME280;38802;50.198;19.796;2023-05-22T10:16:54;96309.57;;;20.34;43.81
52935;BME280;38802;50.198;19.796;2023-05-22T10:19:24;96313.80;;;20.46;44.16
52935;BME280;38802;50.198;19.796;2023-05-22T10:21:55;96308.58;;;20.52;43.50
52935;BME280;38802;50.198;19.796;2023-05-22T10:24:24;96308.63;;;20.45;43.32
52935;BME280;38802;50.198;19.796;2023-05-22T10:26:53;96307.95;;;20.31;42.63
52935;BME280;38802;50.198;19.796;2023-05-22T10:29:26;96307.67;;;20.22;42.60
52935;BME280;38802;50.198;19.796;2023-05-22T10:32:05;96312.22;;;20.21;43.28
52935;BME280;38802;50.198;19.796;2023-05-22T10:37:49;96305.67;;;20.06;42.10
52935;BME280;38802;50.198;19.796;2023-05-22T10:40:31;96304.02;;;20.07;43.08
52935;BME280;38802;50.198;19.796;2023-05-22T10:43:01;96305.70;;;20.24;43.24
52935;BME280;38802;50.198;19.796;2023-05-22T10:45:30;96304.58;;;20.29;43.70
52935;BME280;38802;50.198;19.796;2023-05-22T10:48:06;96301.27;;;20.31;43.30
52935;BME280;38802;50.198;19.796;2023-05-22T10:50:35;96296.48;;;20.28;43.65
52935;BME280;38802;50.198;19.796;2023-05-22T10:53:25;96293.82;;;20.31;43.51
52935;BME280;38802;50.198;19.796;2023-05-22T10:55:54;96295.11;;;20.27;43.17
52935;BME280;38802;50.198;19.796;2023-05-22T10:58:33;96292.96;;;20.21;43.17
52935;BME280;38802;50.198;19.796;2023-05-22T11:03:54;96286.65;;;20.21;43.21
52935;BME280;38802;50.198;19.796;2023-05-22T11:07:01;96283.55;;;20.18;43.58
52935;BME280;38802;50.198;19.796;2023-05-22T11:09:33;96284.61;;;20.10;42.86
52935;BME280;38802;50.198;19.796;2023-05-22T11:12:24;96285.18;;;20.01;43.35
52935;BME280;38802;50.198;19.796;2023-05-22T11:14:58;96280.91;;;20.01;43.57
52935;BME280;38802;50.198;19.796;2023-05-22T11:17:30;96274.39;;;20.00;43.82
52935;BME280;38802;50.198;19.796;2023-05-22T11:20:03;96274.56;;;19.96;44.55
52935;BME280;38802;50.198;19.796;2023-05-22T11:25:05;96274.50;;;19.92;44.22
52935;BME280;38802;50.198;19.796;2023-05-22T11:27:34;96272.50;;;19.92;44.81
52935;BME280;38802;50.198;19.796;2023-05-22T11:30:03;96275.06;;;19.99;44.42
52935;BME280;38802;50.198;19.796;2023-05-22T11:32:37;96273.23;;;19.94;44.38
52935;BME280;38802;50.198;19.796;2023-05-22T11:35:06;96268.14;;;19.89;44.11
52935;BME280;38802;50.198;19.796;2023-05-22T11:37:38;96269.13;;;19.83;44.78
52935;BME280;38802;50.198;19.796;2023-05-22T11:40:07;96271.02;;;19.81;44.50
52935;BME280;38802;50.198;19.796;2023-05-22T11:42:36;96273.49;;;19.81;44.51
52935;BME280;38802;50.198;19.796;2023-05-22T11:45:05;96269.58;;;19.77;44.31
52935;BME280;38802;50.198;19.796;2023-05-22T11:47:55;96267.04;;;19.76;44.53
52935;BME280;38802;50.198;19.796;2023-05-22T11:50:23;96270.91;;;19.82;44.27
52935;BME280;38802;50.198;19.796;2023-05-22T11:53:08;96271.16;;;19.86;44.42
52935;BME280;38802;50.198;19.796;2023-05-22T11:55:36;96269.35;;;19.87;43.52
52935;BME280;38802;50.198;19.796;2023-05-22T11:58:04;96271.02;;;19.84;43.36
52935;BME280;38802;50.198;19.796;2023-05-22T12:00:32;96266.45;;;19.84;43.95
52935;BME280;38802;50.198;19.796;2023-05-22T12:03:00;96265.27;;;19.89;42.83
52935;BME280;38802;50.198;19.796;2023-05-22T12:05:31;96266.59;;;19.88;42.67
52935;BME280;38802;50.198;19.796;2023-05-22T12:07:59;96269.77;;;19.88;43.22
52935;BME280;38802;50.198;19.796;2023-05-22T12:10:27;96266.38;;;19.90;42.79
52935;BME280;38802;50.198;19.796;2023-05-22T12:12:55;96265.27;;;19.83;42.82
52935;BME280;38802;50.198;19.796;2023-05-22T12:15:24;96266.05;;;19.78;42.79
52935;BME280;38802;50.198;19.796;2023-05-22T12:17:55;96262.45;;;19.76;42.99
52935;BME280;38802;50.198;19.796;2023-05-22T12:20:28;96258.03;;;19.83;43.04
52935;BME280;38802;50.198;19.796;2023-05-22T12:22:57;96258.98;;;19.87;43.29
52935;BME280;38802;50.198;19.796;2023-05-22T12:25:34;96256.07;;;19.89;42.66
52935;BME280;38802;50.198;19.796;2023-05-22T12:28:05;96255.29;;;19.88;42.60
52935;BME280;38802;50.198;19.796;2023-05-22T12:30:40;96253.19;;;19.87;42.76
52935;BME280;38802;50.198;19.796;2023-05-22T12:33:12;96250.16;;;19.89;42.84
52935;BME280;38802;50.198;19.796;2023-05-22T12:35:41;96245.62;;;19.90;43.59
52935;BME280;38802;50.198;19.796;2023-05-22T12:38:10;96240.39;;;19.93;44.32
52935;BME280;38802;50.198;19.796;2023-05-22T12:40:37;96245.09;;;19.97;44.13
52935;BME280;38802;50.198;19.796;2023-05-22T12:43:06;96247.29;;;19.96;43.97
52935;BME280;38802;50.198;19.796;2023-05-22T12:45:34;96240.29;;;19.98;43.60
52935;BME280;38802;50.198;19.796;2023-05-22T12:48:03;96237.38;;;19.98;43.86
52935;BME280;38802;50.198;19.796;2023-05-22T12:50:32;96234.19;;;19.95;44.07
52935;BME280;38802;50.198;19.796;2023-05-22T12:53:00;96227.66;;;19.92;44.04
52935;BME280;38802;50.198;19.796;2023-05-22T12:55:30;96232.61;;;19.94;44.41
52935;BME280;38802;50.198;19.796;2023-05-22T12:57:58;96229.89;;;19.96;43.83
52935;BME280;38802;50.198;19.796;2023-05-22T13:00:28;96226.73;;;19.93;43.81
52935;BME280;38802;50.198;19.796;2023-05-22T13:02:57;96226.02;;;19.91;44.44
52935;BME280;38802;50.198;19.796;2023-05-22T13:05:25;96223.52;;;19.95;44.53
52935;BME280;38802;50.198;19.796;2023-05-22T13:07:53;96222.40;;;19.98;44.77
52935;BME280;38802;50.198;19.796;2023-05-22T13:10:21;96227.50;;;20.03;44.50
52935;BME280;38802;50.198;19.796;2023-05-22T13:13:00;96224.98;;;19.97;43.49
52935;BME280;38802;50.198;19.796;2023-05-22T13:15:37;96224.23;;;19.91;43.92
52935;BME280;38802;50.198;19.796;2023-05-22T13:18:05;96224.63;;;19.90;44.37
52935;BME280;38802;50.198;19.796;2023-05-22T13:20:33;96217.59;;;19.87;44.57
52935;BME280;38802;50.198;19.796;2023-05-22T13:23:05;96218.27;;;19.83;44.57
52935;BME280;38802;50.198;19.796;2023-05-22T13:25:34;96210.39;;;19.78;44.47
52935;BME280;38802;50.198;19.796;2023-05-22T13:28:02;96207.39;;;19.69;44.09
52935;BME280;38802;50.198;19.796;2023-05-22T13:30:30;96207.55;;;19.65;44.33